首页
METAR-TAF:

METAR-TAF

机场 :

俾斯麥, 北达科他州, 美国

纬度: 46-46-57N, 经度: 100-45-26W, 海拔: 511米

当前天气观测

该预报发布于33分钟前的15:52 UTC
风速10节,风向
温度 27°C
湿度 70%
气压 1005 hPa
能見度: 16.1公里
天空无云

METAR: KBIS 241552Z 10010KT 10SM CLR 27/21 A2968 RMK AO2 SLP041 T02670211

时间: 11:25 (16:25 UTC)

预报

该预报发布于4小时和47分钟前的11:38 UTC
预报有效从24日的 12点(UTC)到 25日的 12点(UTC)
风速6节,风向东转东北
能見度: 10公里
散云层高于10000英尺, 积雨云.
多云层高于20000英尺
附近有雷暴
从 24日的 1300点(UTC)
风速6节,风向多变
能見度: 10公里
少量云层高于10000英尺
散云层高于20000英尺
从 24日的 1600点(UTC)
风速9节,风向西北
能見度: 10公里
少量云层高于3500英尺
少量云层高于25000英尺
从 24日的 1900点(UTC)
风速13节,风向西北,有时为21节阵风
能見度: 10公里
天空无云
从 25日的 0100点(UTC)
风速7节,风向西转西北
能見度: 10公里
天空无云

TAF: KBIS 241138Z 2412/2512 06006KT P6SM VCTS SCT100CB BKN200 FM241300 VRB06KT P6SM FEW100 SCT200 FM241600 31009KT P6SM FEW035 FEW250 FM241900 32013G21KT P6SM SKC FM250100 30007KT P6SM SKC

超过4000个机场的气象观测和天气预报(METAR&TAF报告)。

可查询的气象台以黄色和红色小点在地图上表示。

将鼠标移到小点上方,可查看气象台名称。

然后点击查看天气观测和预报。

如需切换地图:点击带黑十字的绿色按钮放大地图;点击带横线的绿色按钮缩小地图;或者点击绿色箭头查看邻近地区的地图。


METAR-TAF: